Airfield :
LOGIN :

Register | Disclaimer

   EN    FR    IT 

 










Legend :    VFR   Marginal VFR   IFR   Intensive IFR   Very Intensive IFR
Visi :
Ceiling :
>= 8 km
>= 3000ft
5 to 8 km
1000 to 3000 ft
1500m to 5 km
500 to 1000 ft
800 to 1500m
200 to 500 ft
< 800m
< 200 ft
Symbols :   Thunderstorms  Fog  Heavy snow  Heavy precipitations  Wind > 20 kt
SIGMETs :     Misc.  Thunderstorms  Icing  Turbulence  Mountain Waves  Volcanic Ashes







- Airport Elevation : -11 ft
- IATA code : AMS


EHAM - Amsterdam Schiphol

CURRENT METAR :
  • 181455Z 24014KT 210V280 9999 VCSH FEW020 FEW024TCU 19/13 Q1006 TEMPO 7000 -SHRA FEW020TCU

EXPIRED METARs :
  • 181425Z 25015KT 210V270 9999 FEW024 20/13 Q1006 NOSIG
  • 181355Z 23014KT 190V260 9999 FEW021 20/13 Q1005 NOSIG
  • 181325Z 25013KT 210V280 9999 FEW019 19/14 Q1005 NOSIG
  • 181255Z 25010KT 200V280 9999 FEW014 SCT033 18/14 Q1005 NOSIG
  • 181225Z 24009KT 200V260 9999 FEW012 SCT017 BKN035 18/14 Q1004 NOSIG

TAF TAF EHAM
Valid from the 18 at 12:00 until the 19 at 18:00 UTC


181112Z 1812/1918 24012KT 9999 SCT025
TEMPO 1812/1816 7000 -SHRA SCT018TCU
BECMG 1817/1820 21012KT
TEMPO 1900/1918 7000 -SHRA SCT018TCU
BECMG 1908/1911 24014KT
PROB30
TEMPO 1911/1918 4500 SHRA SCT015CB
No reported NOTAMs for that airfield.



MET'MAP, your aeronautical weather chart ! - Copyright ORBIFLY December 2007 - Disclaimer

ORBIFLY MET'MAP TEAM :

Programming & Development : Alexandra Zaïnal
Concept & Development : Baudouin d'Aumeries
Co-Development & Prog : Marc-Olivier Méhu
Technical & hardware support : Manuel Goepfert

Contact : metmap@orbifly.com




SOURCES & CREDITS :

   NOAA